Time;durP1;ratioP1;P1;durP2;ratioP2;P2;SDS_P1;SDS_P2;PMS_P1;PMS_P2;Temp;Humidity;BMP_temperature;BMP_pressure;BME280_temperature;BME280_humidity;BME280_pressure;Samples;Min_cycle;Max_cycle;Signal;HPM_P1;HPM_P2
2023/07/19 00:00:50;;;;;;;;;;;;;;;;;;4979170;28;20406;-69
2023/07/19 00:03:16;;;;;;;;;;;;;;;;;;4972994;28;20052;-67
2023/07/19 00:05:42;;;;;;;;;;;;;;;;;;4982874;28;19973;-67
2023/07/19 00:08:08;;;;;;;;;;;;;;;;;;4981545;28;20476;-67
2023/07/19 00:10:34;;;;;;;;;;;;;;;;;;4983240;28;19925;-68
2023/07/19 00:13:00;;;;;;;;;;;;;;;;;;4981651;28;19926;-67
2023/07/19 00:15:26;;;;;;;;;;;;;;;;;;4983816;28;19953;-67
2023/07/19 00:17:51;;;;;;;;;;;;;;;;;;4974569;28;19930;-67
2023/07/19 00:20:18;;;;;;;;;;;;;;;;;;4975893;28;19929;-68
2023/07/19 00:22:45;;;;;;;;;;;;;;;;;;4971261;28;20284;-68
2023/07/19 00:25:10;;;;;;;;;;;;;;;;;;4972468;28;19925;-67
2023/07/19 00:27:36;;;;;;;;;;;;;;;;;;4974449;28;19953;-67
2023/07/19 00:30:02;;;;;;;;;;;;;;;;;;4983713;28;19930;-67
2023/07/19 00:32:28;;;;;;;;;;;;;;;;;;4984043;28;20384;-69
2023/07/19 00:34:54;;;;;;;;;;;;;;;;;;4981056;28;19933;-69
2023/07/19 00:37:20;;;;;;;;;;;;;;;;;;4983392;28;19926;-69
2023/07/19 00:39:46;;;;;;;;;;;;;;;;;;4965110;28;19926;-69
2023/07/19 00:42:12;;;;;;;;;;;;;;;;;;4981648;28;20379;-69
2023/07/19 00:44:38;;;;;;;;;;;;;;;;;;4983606;28;19932;-69
2023/07/19 00:47:04;;;;;;;;;;;;;;;;;;4981683;28;19926;-68
2023/07/19 00:49:30;;;;;;;;;;;;;;;;;;4981772;28;20336;-69
2023/07/19 00:51:56;;;;;;;;;;;;;;;;;;4980321;28;19934;-67
2023/07/19 00:54:22;;;;;;;;;;;;;;;;;;4986485;28;20568;-67
2023/07/19 00:56:47;;;;;;;;;;;;;;;;;;4984125;28;20006;-68
2023/07/19 00:59:14;;;;;;;;;;;;;;;;;;4987529;28;19932;-68
2023/07/19 01:01:40;;;;;;;;;;;;;;;;;;4984527;28;19941;-68
2023/07/19 01:04:06;;;;;;;;;;;;;;;;;;4968246;28;19921;-68
2023/07/19 01:06:32;;;;;;;;;;;;;;;;;;4979615;28;19930;-64
2023/07/19 01:08:58;;;;;;;;;;;;;;;;;;4977557;28;20296;-68
2023/07/19 01:11:24;;;;;;;;;;;;;;;;;;4987585;28;19925;-68
2023/07/19 01:13:50;;;;;;;;;;;;;;;;;;4983880;28;19926;-68
2023/07/19 01:16:16;;;;;;;;;;;;;;;;;;4984647;28;19933;-68
2023/07/19 01:18:42;;;;;;;;;;;;;;;;;;4983163;28;19934;-68
2023/07/19 01:21:08;;;;;;;;;;;;;;;;;;4986839;28;20021;-69
2023/07/19 01:23:34;;;;;;;;;;;;;;;;;;4980915;28;19987;-68
2023/07/19 01:26:00;;;;;;;;;;;;;;;;;;4981557;28;20201;-69
2023/07/19 01:28:26;;;;;;;;;;;;;;;;;;4967496;28;20395;-69
2023/07/19 01:30:52;;;;;;;;;;;;;;;;;;4974406;28;19934;-68
2023/07/19 01:33:18;;;;;;;;;;;;;;;;;;4985432;28;20380;-69
2023/07/19 01:35:44;;;;;;;;;;;;;;;;;;4971532;28;19922;-69
2023/07/19 01:38:10;;;;;;;;;;;;;;;;;;4974017;28;19925;-69
2023/07/19 01:40:36;;;;;;;;;;;;;;;;;;4970325;28;20006;-70
2023/07/19 01:43:02;;;;;;;;;;;;;;;;;;4983430;28;20198;-71
2023/07/19 01:45:28;;;;;;;;;;;;;;;;;;4986924;28;20419;-71
2023/07/19 01:47:54;;;;;;;;;;;;;;;;;;4982797;28;19933;-69
2023/07/19 01:50:20;;;;;;;;;;;;;;;;;;4983504;28;19933;-69
2023/07/19 01:52:45;;;;;;;;;;;;;;;;;;4981584;28;20435;-69
2023/07/19 01:55:11;;;;;;;;;;;;;;;;;;4977955;28;20450;-69
2023/07/19 01:57:37;;;;;;;;;;;;;;;;;;4984119;28;19926;-69
2023/07/19 02:00:04;;;;;;;;;;;;;;;;;;4975925;28;20472;-69
2023/07/19 02:02:29;;;;;;;;;;;;;;;;;;4984031;28;19980;-69
2023/07/19 02:04:55;;;;;;;;;;;;;;;;;;4979464;28;19926;-69
2023/07/19 02:07:21;;;;;;;;;;;;;;;;;;4976497;28;20162;-68
2023/07/19 02:09:47;;;;;;;;;;;;;;;;;;4985468;28;20410;-68
2023/07/19 02:12:13;;;;;;;;;;;;;;;;;;4983832;28;19926;-69
2023/07/19 02:14:39;;;;;;;;;;;;;;;;;;4977230;28;19929;-69
2023/07/19 02:17:05;;;;;;;;;;;;;;;;;;4971607;28;19976;-69
2023/07/19 02:19:31;;;;;;;;;;;;;;;;;;4974763;28;19929;-68
2023/07/19 02:21:57;;;;;;;;;;;;;;;;;;4985185;28;20397;-68
2023/07/19 02:24:23;;;;;;;;;;;;;;;;;;4983433;28;19973;-68
2023/07/19 02:26:49;;;;;;;;;;;;;;;;;;4984063;28;20387;-68
2023/07/19 02:29:15;;;;;;;;;;;;;;;;;;4980006;28;19926;-69
2023/07/19 02:31:41;;;;;;;;;;;;;;;;;;4979456;28;20375;-68
2023/07/19 02:34:06;;;;;;;;;;;;;;;;;;4975817;28;19932;-68
2023/07/19 02:36:34;;;;;;;;;;;;;;;;;;4979379;28;19926;-67
2023/07/19 02:38:59;;;;;;;;;;;;;;;;;;4977636;28;19926;-67
2023/07/19 02:41:25;;;;;;;;;;;;;;;;;;4983109;28;19953;-68
2023/07/19 02:43:51;;;;;;;;;;;;;;;;;;4960816;28;19934;-66
2023/07/19 02:46:17;;;;;;;;;;;;;;;;;;4982769;28;19932;-67
2023/07/19 02:48:43;;;;;;;;;;;;;;;;;;4984936;28;20303;-67
2023/07/19 02:51:09;;;;;;;;;;;;;;;;;;4982377;28;19926;-68
2023/07/19 02:53:35;;;;;;;;;;;;;;;;;;4984523;28;19930;-67
2023/07/19 02:56:01;;;;;;;;;;;;;;;;;;4979620;28;19932;-68
2023/07/19 02:58:27;;;;;;;;;;;;;;;;;;4977472;28;19980;-67
2023/07/19 03:00:53;;;;;;;;;;;;;;;;;;4978866;28;19930;-68
2023/07/19 03:03:19;;;;;;;;;;;;;;;;;;4977366;28;20057;-68
2023/07/19 03:05:45;;;;;;;;;;;;;;;;;;4983932;28;20910;-68
2023/07/19 03:08:11;;;;;;;;;;;;;;;;;;4969370;28;19930;-67
2023/07/19 03:10:37;;;;;;;;;;;;;;;;;;4982309;28;19926;-68
2023/07/19 03:13:03;;;;;;;;;;;;;;;;;;4968134;28;19929;-67
2023/07/19 03:15:32;;;;;;;;;;;;;;;;;;4969705;28;19931;-69
2023/07/19 03:17:58;;;;;;;;;;;;;;;;;;4976010;28;20434;-69
2023/07/19 03:20:25;;;;;;;;;;;;;;;;;;4967894;28;19926;-68
2023/07/19 03:22:51;;;;;;;;;;;;;;;;;;4984599;28;19933;-67
2023/07/19 03:25:17;;;;;;;;;;;;;;;;;;4979901;28;19956;-69
2023/07/19 03:27:43;;;;;;;;;;;;;;;;;;4974325;28;19934;-69
2023/07/19 03:30:09;;;;;;;;;;;;;;;;;;4977450;28;19988;-68
2023/07/19 03:32:35;;;;;;;;;;;;;;;;;;4977327;28;19930;-68
2023/07/19 03:35:01;;;;;;;;;;;;;;;;;;4979034;28;19929;-68
2023/07/19 03:37:26;;;;;;;;;;;;;;;;;;4978106;28;19940;-68
2023/07/19 03:39:53;;;;;;;;;;;;;;;;;;4974415;28;19937;-67
2023/07/19 03:42:19;;;;;;;;;;;;;;;;;;4970014;28;19926;-68
2023/07/19 03:44:45;;;;;;;;;;;;;;;;;;4984058;28;19988;-68
2023/07/19 03:47:11;;;;;;;;;;;;;;;;;;4983931;28;19926;-68
2023/07/19 03:49:37;;;;;;;;;;;;;;;;;;4980473;28;19929;-67
2023/07/19 03:52:03;;;;;;;;;;;;;;;;;;4981030;28;19949;-67
2023/07/19 03:54:28;;;;;;;;;;;;;;;;;;4981217;28;19926;-68
2023/07/19 03:56:55;;;;;;;;;;;;;;;;;;4977226;28;20008;-67
2023/07/19 03:59:20;;;;;;;;;;;;;;;;;;4957053;28;19962;-68
2023/07/19 04:01:46;;;;;;;;;;;;;;;;;;4980724;28;19987;-67
2023/07/19 04:04:12;;;;;;;;;;;;;;;;;;4972753;28;20585;-67
2023/07/19 04:06:38;;;;;;;;;;;;;;;;;;4969432;28;19932;-68
2023/07/19 04:09:04;;;;;;;;;;;;;;;;;;4969419;28;19976;-68
2023/07/19 04:11:30;;;;;;;;;;;;;;;;;;4972145;28;19965;-68
2023/07/19 04:13:56;;;;;;;;;;;;;;;;;;4967030;28;19954;-68
2023/07/19 04:16:22;;;;;;;;;;;;;;;;;;4963985;28;19958;-67
2023/07/19 04:18:48;;;;;;;;;;;;;;;;;;4968013;28;20306;-68
2023/07/19 04:21:14;;;;;;;;;;;;;;;;;;4982990;28;20002;-68
2023/07/19 04:23:40;;;;;;;;;;;;;;;;;;4981124;28;20017;-68
2023/07/19 04:26:06;;;;;;;;;;;;;;;;;;4983380;28;20017;-68
2023/07/19 04:28:32;;;;;;;;;;;;;;;;;;4986963;28;20016;-66
2023/07/19 04:30:58;;;;;;;;;;;;;;;;;;4974895;28;20380;-69
2023/07/19 04:33:24;;;;;;;;;;;;;;;;;;4982585;28;19929;-70
2023/07/19 04:35:50;;;;;;;;;;;;;;;;;;4987263;28;19933;-69
2023/07/19 04:38:16;;;;;;;;;;;;;;;;;;4976065;28;20388;-70
2023/07/19 04:40:42;;;;;;;;;;;;;;;;;;4974469;28;19950;-70
2023/07/19 04:43:08;;;;;;;;;;;;;;;;;;4974378;28;19934;-70
2023/07/19 04:45:34;;;;;;;;;;;;;;;;;;4986717;28;19980;-70
2023/07/19 04:48:00;;;;;;;;;;;;;;;;;;4978308;28;19933;-70
2023/07/19 04:50:26;;;;;;;;;;;;;;;;;;4987138;28;20446;-70
2023/07/19 04:52:53;;;;;;;;;;;;;;;;;;4979669;28;19934;-70
2023/07/19 04:55:19;;;;;;;;;;;;;;;;;;4987104;28;19959;-69
2023/07/19 04:57:45;;;;;;;;;;;;;;;;;;4983346;28;19926;-73
2023/07/19 05:00:11;;;;;;;;;;;;;;;;;;4982803;28;19990;-73
2023/07/19 05:02:37;;;;;;;;;;;;;;;;;;4982953;28;19970;-71
2023/07/19 05:05:04;;;;;;;;;;;;;;;;;;4984775;28;20369;-72
2023/07/19 05:07:30;;;;;;;;;;;;;;;;;;4985017;28;19926;-70
2023/07/19 05:09:56;;;;;;;;;;;;;;;;;;4952668;28;20020;-71
2023/07/19 05:12:22;;;;;;;;;;;;;;;;;;4974407;28;20363;-70
2023/07/19 05:14:48;;;;;;;;;;;;;;;;;;4986615;28;19936;-71
2023/07/19 05:17:14;;;;;;;;;;;;;;;;;;4980165;28;19937;-71
2023/07/19 05:19:40;;;;;;;;;;;;;;;;;;4979400;28;20556;-70
2023/07/19 05:22:06;;;;;;;;;;;;;;;;;;4961591;28;19973;-71
2023/07/19 05:24:32;;;;;;;;;;;;;;;;;;4983763;28;20019;-71
2023/07/19 05:26:58;;;;;;;;;;;;;;;;;;4979918;28;20733;-72
2023/07/19 05:29:23;;;;;;;;;;;;;;;;;;4985967;28;20323;-70
2023/07/19 05:31:49;;;;;;;;;;;;;;;;;;4977918;28;20025;-69
2023/07/19 05:34:15;;;;;;;;;;;;;;;;;;4978418;28;19926;-70
2023/07/19 05:36:41;;;;;;;;;;;;;;;;;;4978501;28;19930;-70
2023/07/19 05:39:08;;;;;;;;;;;;;;;;;;4976418;28;19926;-70
2023/07/19 05:41:34;;;;;;;;;;;;;;;;;;4983015;28;20048;-71
2023/07/19 05:43:59;;;;;;;;;;;;;;;;;;4980482;28;20442;-72
2023/07/19 05:46:25;;;;;;;;;;;;;;;;;;4983058;28;19980;-71
2023/07/19 05:48:51;;;;;;;;;;;;;;;;;;4984836;28;19961;-70
2023/07/19 05:51:17;;;;;;;;;;;;;;;;;;4981429;28;19925;-71
2023/07/19 05:53:43;;;;;;;;;;;;;;;;;;4983778;28;19930;-72
2023/07/19 05:56:09;;;;;;;;;;;;;;;;;;4981659;28;19930;-70
2023/07/19 05:58:35;;;;;;;;;;;;;;;;;;4977681;28;19926;-72
2023/07/19 06:01:01;;;;;;;;;;;;;;;;;;4981924;28;19930;-68
2023/07/19 06:03:27;;;;;;;;;;;;;;;;;;4974217;28;19922;-70
2023/07/19 06:05:53;;;;;;;;;;;;;;;;;;4985854;28;19933;-71
2023/07/19 06:08:19;;;;;;;;;;;;;;;;;;4975532;28;19930;-71
2023/07/19 06:10:45;;;;;;;;;;;;;;;;;;4982288;28;19981;-70
2023/07/19 06:13:14;;;;;;;;;;;;;;;;;;4968737;28;19926;-70
2023/07/19 06:15:39;;;;;;;;;;;;;;;;;;4980186;28;19926;-71
2023/07/19 06:18:05;;;;;;;;;;;;;;;;;;4977157;28;19992;-71
2023/07/19 06:20:32;;;;;;;;;;;;;;;;;;4985400;28;20392;-69
2023/07/19 06:22:57;;;;;;;;;;;;;;;;;;4983050;28;19929;-70
2023/07/19 06:25:23;;;;;;;;;;;;;;;;;;4978712;28;19946;-69
2023/07/19 06:27:49;;;;;;;;;;;;;;;;;;4980842;28;19932;-70
2023/07/19 06:30:15;;;;;;;;;;;;;;;;;;4975854;28;19930;-71
2023/07/19 06:32:41;;;;;;;;;;;;;;;;;;4979275;28;20020;-69
2023/07/19 06:35:09;;;;;;;;;;;;;;;;;;4977102;28;19933;-70
2023/07/19 06:37:34;;;;;;;;;;;;;;;;;;4975101;28;19929;-70
2023/07/19 06:40:04;;;;;;;;;;;;;;;;;;4964504;28;20340;-69
2023/07/19 06:42:33;;;;;;;;;;;;;;;;;;4980767;28;19952;-70
2023/07/19 06:44:59;;;;;;;;;;;;;;;;;;4985438;28;20661;-71
2023/07/19 06:47:26;;;;;;;;;;;;;;;;;;4985224;28;20013;-69
2023/07/19 06:49:52;;;;;;;;;;;;;;;;;;4982433;28;20384;-71
2023/07/19 06:52:18;;;;;;;;;;;;;;;;;;4981007;28;19926;-70
2023/07/19 06:54:44;;;;;;;;;;;;;;;;;;4979453;28;19973;-70
2023/07/19 06:57:10;;;;;;;;;;;;;;;;;;4961844;28;19926;-70
2023/07/19 06:59:36;;;;;;;;;;;;;;;;;;4973604;28;19930;-70
2023/07/19 07:02:02;;;;;;;;;;;;;;;;;;4983124;28;19972;-69
2023/07/19 07:04:28;;;;;;;;;;;;;;;;;;4972663;28;19922;-69
2023/07/19 07:06:54;;;;;;;;;;;;;;;;;;4971848;28;19937;-69
2023/07/19 07:09:20;;;;;;;;;;;;;;;;;;4978633;28;19926;-70
2023/07/19 07:11:45;;;;;;;;;;;;;;;;;;4968329;28;19938;-70
2023/07/19 07:14:11;;;;;;;;;;;;;;;;;;4984480;28;20388;-69
2023/07/19 07:16:37;;;;;;;;;;;;;;;;;;4971806;28;19926;-71
2023/07/19 07:19:04;;;;;;;;;;;;;;;;;;4983500;28;19980;-70
2023/07/19 07:21:31;;;;;;;;;;;;;;;;;;4965713;28;19926;-69
2023/07/19 07:23:57;;;;;;;;;;;;;;;;;;4980812;28;19929;-72
2023/07/19 07:26:22;;;;;;;;;;;;;;;;;;4984523;28;20384;-72
2023/07/19 07:28:48;;;;;;;;;;;;;;;;;;4975339;28;20004;-70
2023/07/19 07:31:14;;;;;;;;;;;;;;;;;;4979693;28;20028;-70
2023/07/19 07:33:40;;;;;;;;;;;;;;;;;;4974942;28;19988;-70
2023/07/19 07:36:06;;;;;;;;;;;;;;;;;;4977563;28;20019;-72
2023/07/19 07:38:32;;;;;;;;;;;;;;;;;;4978112;28;19965;-70
2023/07/19 07:40:58;;;;;;;;;;;;;;;;;;4981976;28;19929;-72
2023/07/19 07:43:24;;;;;;;;;;;;;;;;;;4974988;28;20027;-71
2023/07/19 07:45:50;;;;;;;;;;;;;;;;;;4983442;28;19933;-71
2023/07/19 07:48:16;;;;;;;;;;;;;;;;;;4980838;28;19988;-71
2023/07/19 07:50:42;;;;;;;;;;;;;;;;;;4980981;28;20476;-70
2023/07/19 07:53:07;;;;;;;;;;;;;;;;;;4978621;28;19926;-71
2023/07/19 07:55:33;;;;;;;;;;;;;;;;;;4979277;28;20128;-71
2023/07/19 07:57:59;;;;;;;;;;;;;;;;;;4979031;28;19965;-71
2023/07/19 08:00:25;;;;;;;;;;;;;;;;;;4977015;28;20354;-71
2023/07/19 08:02:51;;;;;;;;;;;;;;;;;;4975646;28;19944;-68
2023/07/19 08:05:17;;;;;;;;;;;;;;;;;;4975257;28;19926;-71
2023/07/19 08:07:43;;;;;;;;;;;;;;;;;;4968407;28;19926;-70
2023/07/19 08:10:09;;;;;;;;;;;;;;;;;;4968557;28;20344;-70
2023/07/19 08:12:35;;;;;;;;;;;;;;;;;;4972619;28;19929;-71
2023/07/19 08:15:01;;;;;;;;;;;;;;;;;;4972292;28;19930;-71
2023/07/19 08:17:26;;;;;;;;;;;;;;;;;;4970702;28;19930;-70
2023/07/19 08:19:53;;;;;;;;;;;;;;;;;;4982898;28;20331;-70
2023/07/19 08:22:19;;;;;;;;;;;;;;;;;;4980269;28;19932;-71
2023/07/19 08:24:44;;;;;;;;;;;;;;;;;;4981126;28;19930;-70
2023/07/19 08:27:10;;;;;;;;;;;;;;;;;;4975387;28;20406;-71
2023/07/19 08:29:36;;;;;;;;;;;;;;;;;;4983892;28;19930;-71
2023/07/19 08:32:03;;;;;;;;;;;;;;;;;;4973656;28;19926;-70
2023/07/19 08:34:29;;;;;;;;;;;;;;;;;;4977774;28;19933;-71
2023/07/19 08:36:55;;;;;;;;;;;;;;;;;;4972860;28;20032;-70
2023/07/19 08:39:21;;;;;;;;;;;;;;;;;;4980151;28;19926;-71
2023/07/19 08:41:47;;;;;;;;;;;;;;;;;;4971576;28;19926;-71
2023/07/19 08:44:12;;;;;;;;;;;;;;;;;;4979566;28;19932;-71
2023/07/19 08:46:39;;;;;;;;;;;;;;;;;;4982502;28;19926;-71
2023/07/19 08:49:05;;;;;;;;;;;;;;;;;;4981575;28;19992;-71
2023/07/19 08:51:30;;;;;;;;;;;;;;;;;;4980303;28;20376;-72
2023/07/19 08:53:56;;;;;;;;;;;;;;;;;;4980281;28;19926;-71
2023/07/19 08:56:22;;;;;;;;;;;;;;;;;;4976202;28;19930;-72
2023/07/19 08:58:48;;;;;;;;;;;;;;;;;;4978391;28;20564;-70
2023/07/19 09:01:15;;;;;;;;;;;;;;;;;;4974595;28;19941;-70
2023/07/19 09:03:41;;;;;;;;;;;;;;;;;;4974795;28;19957;-72
2023/07/19 09:06:07;;;;;;;;;;;;;;;;;;4971298;28;19926;-72
2023/07/19 09:08:33;;;;;;;;;;;;;;;;;;4969866;28;19949;-74
2023/07/19 09:10:59;;;;;;;;;;;;;;;;;;4969360;28;20560;-72
2023/07/19 09:13:25;;;;;;;;;;;;;;;;;;4967263;28;19922;-71
2023/07/19 09:15:51;;;;;;;;;;;;;;;;;;4970778;28;19995;-72
2023/07/19 09:18:17;;;;;;;;;;;;;;;;;;4968173;28;19926;-70
2023/07/19 09:20:43;;;;;;;;;;;;;;;;;;4984341;28;20191;-69
2023/07/19 09:23:09;;;;;;;;;;;;;;;;;;4984813;28;20347;-72
2023/07/19 09:25:35;;;;;;;;;;;;;;;;;;4982807;28;19934;-71
2023/07/19 09:28:01;;;;;;;;;;;;;;;;;;4984154;28;19929;-69
2023/07/19 09:30:27;;;;;;;;;;;;;;;;;;4979010;28;19926;-72
2023/07/19 09:32:53;;;;;;;;;;;;;;;;;;4981612;28;19984;-70
2023/07/19 09:35:19;;;;;;;;;;;;;;;;;;4975872;28;20691;-71
2023/07/19 09:37:45;;;;;;;;;;;;;;;;;;4984178;28;19925;-71
2023/07/19 09:40:11;;;;;;;;;;;;;;;;;;4975771;28;19926;-71
2023/07/19 09:42:39;;;;;;;;;;;;;;;;;;4974908;28;19933;-71
2023/07/19 09:45:06;;;;;;;;;;;;;;;;;;4985430;28;20391;-71
2023/07/19 09:47:32;;;;;;;;;;;;;;;;;;4984435;28;20021;-64
2023/07/19 09:49:59;;;;;;;;;;;;;;;;;;4983640;28;20439;-72
2023/07/19 09:52:25;;;;;;;;;;;;;;;;;;4981907;28;19925;-71
2023/07/19 09:54:51;;;;;;;;;;;;;;;;;;4981758;28;19944;-71
2023/07/19 09:57:17;;;;;;;;;;;;;;;;;;4981050;28;19926;-71
2023/07/19 09:59:43;;;;;;;;;;;;;;;;;;4973826;28;19926;-70
2023/07/19 10:02:09;;;;;;;;;;;;;;;;;;4978271;28;19936;-71
2023/07/19 10:04:37;;;;;;;;;;;;;;;;;;4979669;28;20657;-70
2023/07/19 10:07:03;;;;;;;;;;;;;;;;;;4973744;28;20612;-70
2023/07/19 10:09:29;;;;;;;;;;;;;;;;;;4979801;28;19926;-71
2023/07/19 10:11:55;;;;;;;;;;;;;;;;;;4971281;28;19926;-72
2023/07/19 10:14:26;;;;;;;;;;;;;;;;;;4974896;28;20666;-70
2023/07/19 10:16:52;;;;;;;;;;;;;;;;;;4972675;28;19931;-70
2023/07/19 10:19:17;;;;;;;;;;;;;;;;;;4979257;28;19954;-71
2023/07/19 10:21:43;;;;;;;;;;;;;;;;;;4965942;28;19946;-71
2023/07/19 10:24:09;;;;;;;;;;;;;;;;;;4982509;28;19930;-72
2023/07/19 10:26:36;;;;;;;;;;;;;;;;;;4982647;28;19948;-72
2023/07/19 10:29:02;;;;;;;;;;;;;;;;;;4978375;28;19937;-66
2023/07/19 10:31:28;;;;;;;;;;;;;;;;;;4980546;28;19934;-71
2023/07/19 10:33:53;;;;;;;;;;;;;;;;;;4980148;28;19957;-71
2023/07/19 10:36:19;;;;;;;;;;;;;;;;;;4985151;28;19930;-71
2023/07/19 10:38:45;;;;;;;;;;;;;;;;;;4954061;28;20335;-70
2023/07/19 10:41:12;;;;;;;;;;;;;;;;;;4976190;28;19930;-68
2023/07/19 10:43:38;;;;;;;;;;;;;;;;;;4976940;28;19925;-72
2023/07/19 10:46:04;;;;;;;;;;;;;;;;;;4983910;28;20356;-71
2023/07/19 10:48:31;;;;;;;;;;;;;;;;;;4983704;28;19932;-72
2023/07/19 10:50:57;;;;;;;;;;;;;;;;;;4967176;28;19944;-71
2023/07/19 10:53:23;;;;;;;;;;;;;;;;;;4977804;28;19926;-71
2023/07/19 10:55:48;;;;;;;;;;;;;;;;;;4984485;28;20284;-71
2023/07/19 10:58:14;;;;;;;;;;;;;;;;;;4973609;28;19937;-71
2023/07/19 11:00:43;;;;;;;;;;;;;;;;;;4977732;28;19933;-72
2023/07/19 11:03:09;;;;;;;;;;;;;;;;;;4978072;28;20053;-71
2023/07/19 11:05:35;;;;;;;;;;;;;;;;;;4983992;28;20021;-71
2023/07/19 11:08:01;;;;;;;;;;;;;;;;;;4969323;28;19996;-71
2023/07/19 11:10:26;;;;;;;;;;;;;;;;;;4971909;28;19926;-71
2023/07/19 11:12:52;;;;;;;;;;;;;;;;;;4967088;28;19934;-71
2023/07/19 11:15:18;;;;;;;;;;;;;;;;;;4968282;28;20623;-71
2023/07/19 11:17:44;;;;;;;;;;;;;;;;;;4977352;28;20457;-71
2023/07/19 11:20:12;;;;;;;;;;;;;;;;;;4961167;28;19926;-71
2023/07/19 11:22:38;;;;;;;;;;;;;;;;;;4970355;28;19932;-71
2023/07/19 11:25:08;;;;;;;;;;;;;;;;;;4981718;28;19926;-70
2023/07/19 11:27:34;;;;;;;;;;;;;;;;;;4979141;28;19975;-72
2023/07/19 11:30:00;;;;;;;;;;;;;;;;;;4979549;28;19933;-72
2023/07/19 11:32:25;;;;;;;;;;;;;;;;;;4976465;28;19927;-71
2023/07/19 11:34:51;;;;;;;;;;;;;;;;;;4983494;28;20409;-71
2023/07/19 11:37:17;;;;;;;;;;;;;;;;;;4977939;28;19926;-70
2023/07/19 11:39:43;;;;;;;;;;;;;;;;;;4974989;28;20438;-71
2023/07/19 11:42:09;;;;;;;;;;;;;;;;;;4959563;28;20431;-71
2023/07/19 11:44:35;;;;;;;;;;;;;;;;;;4983244;28;20391;-72
2023/07/19 11:47:01;;;;;;;;;;;;;;;;;;4984735;28;19933;-71
2023/07/19 11:49:27;;;;;;;;;;;;;;;;;;4981642;28;19929;-71
2023/07/19 11:51:53;;;;;;;;;;;;;;;;;;4979080;28;19992;-70
2023/07/19 11:54:19;;;;;;;;;;;;;;;;;;4983240;28;20323;-70
2023/07/19 11:56:45;;;;;;;;;;;;;;;;;;4976001;28;19976;-70
2023/07/19 11:59:11;;;;;;;;;;;;;;;;;;4977579;28;20549;-71
2023/07/19 12:01:37;;;;;;;;;;;;;;;;;;4972700;28;19926;-72
2023/07/19 12:04:03;;;;;;;;;;;;;;;;;;4982937;28;19947;-72
2023/07/19 12:06:29;;;;;;;;;;;;;;;;;;4977159;28;20408;-72
2023/07/19 12:08:55;;;;;;;;;;;;;;;;;;4972408;28;19953;-72
2023/07/19 12:11:21;;;;;;;;;;;;;;;;;;4974830;28;19930;-72
2023/07/19 12:13:48;;;;;;;;;;;;;;;;;;4972223;28;19926;-71
2023/07/19 12:16:16;;;;;;;;;;;;;;;;;;4957877;28;19938;-72
2023/07/19 12:18:42;;;;;;;;;;;;;;;;;;4978687;28;20361;-72
2023/07/19 12:21:08;;;;;;;;;;;;;;;;;;4984011;28;20004;-71
2023/07/19 12:23:34;;;;;;;;;;;;;;;;;;4960927;28;20016;-71
2023/07/19 12:26:00;;;;;;;;;;;;;;;;;;4980615;28;20017;-71
2023/07/19 12:28:26;;;;;;;;;;;;;;;;;;4979192;28;21318;-71
2023/07/19 12:30:52;;;;;;;;;;;;;;;;;;4979741;28;19984;-69
2023/07/19 12:33:18;;;;;;;;;;;;;;;;;;4981733;28;19949;-71
2023/07/19 12:35:44;;;;;;;;;;;;;;;;;;4972917;28;19973;-70
2023/07/19 12:38:10;;;;;;;;;;;;;;;;;;4973404;28;19930;-73
2023/07/19 12:40:36;;;;;;;;;;;;;;;;;;4976191;28;19926;-74
2023/07/19 12:43:02;;;;;;;;;;;;;;;;;;4983653;28;20028;-74
2023/07/19 12:45:27;;;;;;;;;;;;;;;;;;4983964;28;19953;-75
2023/07/19 12:47:53;;;;;;;;;;;;;;;;;;4965987;28;20677;-73
2023/07/19 12:50:19;;;;;;;;;;;;;;;;;;4970612;28;19997;-74
2023/07/19 12:52:45;;;;;;;;;;;;;;;;;;4975122;28;19940;-72
2023/07/19 12:55:11;;;;;;;;;;;;;;;;;;4975272;28;19945;-70
2023/07/19 12:57:37;;;;;;;;;;;;;;;;;;4984566;28;19962;-74
2023/07/19 13:00:06;;;;;;;;;;;;;;;;;;4982147;28;19929;-73
2023/07/19 13:02:32;;;;;;;;;;;;;;;;;;4984358;28;19930;-65
2023/07/19 13:04:57;;;;;;;;;;;;;;;;;;4982754;28;19932;-73
2023/07/19 13:07:23;;;;;;;;;;;;;;;;;;4977543;28;19930;-73
2023/07/19 13:09:49;;;;;;;;;;;;;;;;;;4969840;28;20052;-74
2023/07/19 13:12:15;;;;;;;;;;;;;;;;;;4975376;28;20338;-73
2023/07/19 13:14:41;;;;;;;;;;;;;;;;;;4981893;28;19929;-74
2023/07/19 13:17:09;;;;;;;;;;;;;;;;;;4984550;28;20820;-74
2023/07/19 13:19:35;;;;;;;;;;;;;;;;;;4970022;28;19929;-75
2023/07/19 13:22:01;;;;;;;;;;;;;;;;;;4975923;28;20414;-73
2023/07/19 13:24:27;;;;;;;;;;;;;;;;;;4981214;28;20147;-75
2023/07/19 13:26:53;;;;;;;;;;;;;;;;;;4976760;28;20004;-73
2023/07/19 13:29:19;;;;;;;;;;;;;;;;;;4983602;28;20585;-74
2023/07/19 13:31:45;;;;;;;;;;;;;;;;;;4978978;28;20393;-73
2023/07/19 13:34:11;;;;;;;;;;;;;;;;;;4976119;28;19929;-72
2023/07/19 13:36:37;;;;;;;;;;;;;;;;;;4977923;28;19938;-73
2023/07/19 13:39:02;;;;;;;;;;;;;;;;;;4970035;28;19964;-73
2023/07/19 13:41:28;;;;;;;;;;;;;;;;;;4970488;28;19926;-73
2023/07/19 13:43:54;;;;;;;;;;;;;;;;;;4975748;28;19930;-73
2023/07/19 13:46:23;;;;;;;;;;;;;;;;;;4983029;28;19933;-72
2023/07/19 13:48:49;;;;;;;;;;;;;;;;;;4982511;28;19933;-72
2023/07/19 13:51:15;;;;;;;;;;;;;;;;;;4977647;28;20454;-73
2023/07/19 13:53:44;;;;;;;;;;;;;;;;;;4983284;28;19925;-74
2023/07/19 13:56:10;;;;;;;;;;;;;;;;;;4975408;28;19930;-72
2023/07/19 13:58:36;;;;;;;;;;;;;;;;;;4981325;28;19937;-73
2023/07/19 14:01:02;;;;;;;;;;;;;;;;;;4975605;28;19930;-65
2023/07/19 14:03:29;;;;;;;;;;;;;;;;;;4983969;28;19930;-73
2023/07/19 14:05:54;;;;;;;;;;;;;;;;;;4986195;28;19984;-72
2023/07/19 14:08:20;;;;;;;;;;;;;;;;;;4992478;28;19993;-72
2023/07/19 14:10:46;;;;;;;;;;;;;;;;;;4953963;28;20319;-72
2023/07/19 14:13:13;;;;;;;;;;;;;;;;;;4982296;28;19930;-72
2023/07/19 14:15:38;;;;;;;;;;;;;;;;;;4970593;28;20403;-72
2023/07/19 14:18:04;;;;;;;;;;;;;;;;;;4983336;28;19930;-71
2023/07/19 14:20:30;;;;;;;;;;;;;;;;;;4982379;28;20045;-66
2023/07/19 14:22:56;;;;;;;;;;;;;;;;;;4981007;28;19933;-72
2023/07/19 14:25:22;;;;;;;;;;;;;;;;;;4983195;28;19930;-72
2023/07/19 14:27:48;;;;;;;;;;;;;;;;;;4973887;28;19937;-72
2023/07/19 14:30:14;;;;;;;;;;;;;;;;;;4973610;28;20017;-73
2023/07/19 14:32:40;;;;;;;;;;;;;;;;;;4978673;28;19937;-72
2023/07/19 14:35:06;;;;;;;;;;;;;;;;;;4964153;28;19930;-73
2023/07/19 14:37:32;;;;;;;;;;;;;;;;;;4977929;28;20012;-73
2023/07/19 14:39:58;;;;;;;;;;;;;;;;;;4982712;28;20048;-72
2023/07/19 14:42:24;;;;;;;;;;;;;;;;;;4978030;28;20261;-73
2023/07/19 14:44:50;;;;;;;;;;;;;;;;;;4982273;28;21342;-73
2023/07/19 14:47:16;;;;;;;;;;;;;;;;;;4981394;28;19929;-72
2023/07/19 14:49:41;;;;;;;;;;;;;;;;;;4979637;28;20443;-72
2023/07/19 14:52:07;;;;;;;;;;;;;;;;;;4978839;28;20053;-73
2023/07/19 14:54:33;;;;;;;;;;;;;;;;;;4976818;28;19974;-73
2023/07/19 14:57:00;;;;;;;;;;;;;;;;;;4976437;28;19929;-73
2023/07/19 14:59:26;;;;;;;;;;;;;;;;;;4972487;28;19937;-72
2023/07/19 15:01:52;;;;;;;;;;;;;;;;;;4972892;28;19933;-72
2023/07/19 15:04:19;;;;;;;;;;;;;;;;;;4977392;28;19930;-72
2023/07/19 15:06:45;;;;;;;;;;;;;;;;;;4971773;28;20458;-71
2023/07/19 15:09:11;;;;;;;;;;;;;;;;;;4977954;28;20252;-72
2023/07/19 15:11:37;;;;;;;;;;;;;;;;;;4964722;28;19926;-72
2023/07/19 15:14:03;;;;;;;;;;;;;;;;;;4981947;28;19961;-72
2023/07/19 15:16:29;;;;;;;;;;;;;;;;;;4983506;28;19926;-72
2023/07/19 15:18:55;;;;;;;;;;;;;;;;;;4977620;28;20022;-73
2023/07/19 15:21:21;;;;;;;;;;;;;;;;;;4982864;28;20257;-73
2023/07/19 15:23:47;;;;;;;;;;;;;;;;;;4979299;28;20427;-72
2023/07/19 15:26:13;;;;;;;;;;;;;;;;;;4983394;28;20443;-72
2023/07/19 15:28:39;;;;;;;;;;;;;;;;;;4960941;28;20017;-72
2023/07/19 15:31:05;;;;;;;;;;;;;;;;;;4976332;28;20028;-73
2023/07/19 15:33:32;;;;;;;;;;;;;;;;;;4970211;28;20005;-72
2023/07/19 15:35:59;;;;;;;;;;;;;;;;;;4971507;28;19980;-71
2023/07/19 15:38:25;;;;;;;;;;;;;;;;;;4977924;28;19926;-70
2023/07/19 15:40:53;;;;;;;;;;;;;;;;;;4969116;28;19926;-71
2023/07/19 15:43:21;;;;;;;;;;;;;;;;;;4980320;28;21322;-68
2023/07/19 15:45:47;;;;;;;;;;;;;;;;;;4983506;28;20016;-70
2023/07/19 15:48:13;;;;;;;;;;;;;;;;;;4983255;28;19926;-71
2023/07/19 15:50:39;;;;;;;;;;;;;;;;;;4982388;28;19961;-72
2023/07/19 15:53:05;;;;;;;;;;;;;;;;;;4976137;28;19984;-73
2023/07/19 15:55:31;;;;;;;;;;;;;;;;;;4979189;28;19941;-72
2023/07/19 15:57:57;;;;;;;;;;;;;;;;;;4974912;28;19930;-73
2023/07/19 16:00:23;;;;;;;;;;;;;;;;;;4981687;28;19933;-73
2023/07/19 16:02:49;;;;;;;;;;;;;;;;;;4971460;28;20303;-73
2023/07/19 16:05:15;;;;;;;;;;;;;;;;;;4979388;28;20342;-72
2023/07/19 16:07:41;;;;;;;;;;;;;;;;;;4964520;28;19926;-73
2023/07/19 16:10:07;;;;;;;;;;;;;;;;;;4978383;28;19933;-75
2023/07/19 16:12:33;;;;;;;;;;;;;;;;;;4971169;28;19977;-73
2023/07/19 16:14:59;;;;;;;;;;;;;;;;;;4984502;28;19980;-75
2023/07/19 16:17:27;;;;;;;;;;;;;;;;;;4983112;28;19925;-74
2023/07/19 16:19:52;;;;;;;;;;;;;;;;;;4983649;28;19988;-71
2023/07/19 16:22:18;;;;;;;;;;;;;;;;;;4980321;28;19933;-71
2023/07/19 16:24:44;;;;;;;;;;;;;;;;;;4982902;28;20343;-72
2023/07/19 16:27:10;;;;;;;;;;;;;;;;;;4989113;28;19926;-71
2023/07/19 16:29:36;;;;;;;;;;;;;;;;;;4986300;28;19968;-72
2023/07/19 16:32:02;;;;;;;;;;;;;;;;;;4981634;28;20347;-70
2023/07/19 16:34:28;;;;;;;;;;;;;;;;;;4980040;28;19926;-70
2023/07/19 16:36:54;;;;;;;;;;;;;;;;;;4985460;28;19922;-70